Overview Statistics Trail Chart Weather Telemetry Raw packets
 

This is the latest recevied weather packets stored in our database for station/object OK2VOP-6. If no packets are shown the sender has not sent any weather packets the latest 10 day(s).

<< 23 24 25 26 27 28 29 >>
Time Temp. Humidity Pressure Rain* Wind** Luminosity Snow
1787956139 22.78° C 40% - 0.25 mm - - -
1787954934 25° C 19% - 0 mm - - -
1787953729 25.56° C 17% - 0 mm - - -
1787952524 25.56° C 17% - 0 mm - - -
1787951320 25.56° C 19% - 0 mm - - -
1787950115 25° C 19% - 0 mm - - -
1787948910 26.11° C 16% - 0 mm - - -
1787947705 26.11° C 15% - 0 mm - - -
1787946500 26.11° C 15% - 0 mm - - -
1787945295 26.67° C 13% - 0 mm - - -
1787944091 26.67° C 12% - 0 mm - - -
1787942886 26.67° C 13% - 0 mm - - -
1787941681 27.22° C 13% - 0 mm - - -
1787940476 27.22° C 13% - 0 mm - - -
1787939271 27.22° C 12% - 0 mm - - -
1787938067 27.78° C 11% - 0 mm - - -
1787936862 28.33° C 10% - 0 mm - - -
1787935657 28.89° C 10% - 0 mm - - -
1787934452 30° C 8% - 0 mm - - -
1787933247 30.56° C 7% - 0 mm - - -
1787932043 31.11° C 7% - 0 mm - - -
1787930838 31.67° C 7% - 0 mm - - -
1787929633 31.67° C 6% - 0 mm - - -
1787928428 31.67° C 6% - 0 mm - - -
1787927223 31.67° C 7% - 0 mm - - -

* Rain latest hour (hover to see other rain measurements)
** Current wind speed in m/s (hover to see current wind gust speed)